Time;durP1;ratioP1;P1;durP2;ratioP2;P2;SDS_P1;SDS_P2;PMS_P1;PMS_P2;Temp;Humidity;BMP_temperature;BMP_pressure;BME280_temperature;BME280_humidity;BME280_pressure;Samples;Min_cycle;Max_cycle;Signal;HPM_P1;HPM_P2
2023/05/23 00:02:25;;;;;;;7.30;5.60;;;15.00;99.90;;;;;;6108614;23;20405;-81
2023/05/23 00:04:57;;;;;;;5.80;5.20;;;14.90;99.90;;;;;;6133179;23;20450;-85
2023/05/23 00:07:31;;;;;;;7.33;6.50;;;14.90;99.90;;;;;;6134817;23;20582;-84
2023/05/23 00:09:58;;;;;;;6.80;6.07;;;15.00;99.90;;;;;;6110370;23;20596;-81
2023/05/23 00:12:28;;;;;;;4.90;4.15;;;14.80;99.90;;;;;;6132260;23;20701;-85
2023/05/23 00:14:58;;;;;;;7.18;5.82;;;14.80;99.90;;;;;;6134567;23;20166;-80
2023/05/23 00:17:26;;;;;;;6.07;5.47;;;14.60;99.90;;;;;;6133131;23;20216;-82
2023/05/23 00:19:54;;;;;;;6.90;5.60;;;14.70;99.90;;;;;;6133303;23;20416;-85
2023/05/23 00:22:22;;;;;;;6.43;5.83;;;14.80;99.90;;;;;;6133969;23;20392;-87
2023/05/23 00:24:50;;;;;;;9.80;6.00;;;14.70;99.90;;;;;;6156238;23;20440;-82
2023/05/23 00:27:17;;;;;;;7.40;6.13;;;14.70;99.90;;;;;;6084052;23;20410;-81
2023/05/23 00:29:46;;;;;;;6.40;5.77;;;14.50;99.90;;;;;;6133420;23;20413;-84
2023/05/23 00:32:15;;;;;;;7.38;5.97;;;14.40;99.90;;;;;;6133096;23;20404;-82
2023/05/23 00:34:44;;;;;;;7.28;6.55;;;14.30;99.90;;;;;;6133122;23;20166;-81
2023/05/23 00:37:11;;;;;;;8.85;7.82;;;14.30;99.90;;;;;;6130630;23;20177;-83
2023/05/23 00:39:42;;;;;;;8.50;6.00;;;14.40;99.90;;;;;;6144652;23;20173;-83
2023/05/23 00:42:09;;;;;;;10.50;6.43;;;14.40;99.90;;;;;;6152361;23;20347;-85
2023/05/23 00:44:36;;;;;;;7.03;6.43;;;14.30;99.90;;;;;;6125913;23;20410;-79
2023/05/23 00:47:05;;;;;;;7.00;6.30;;;14.20;99.90;;;;;;6135985;23;20498;-84
2023/05/23 00:49:34;;;;;;;8.23;6.70;;;14.10;99.90;;;;;;6106325;23;20210;-81
2023/05/23 00:52:02;;;;;;;8.77;7.10;;;14.20;99.90;;;;;;6081472;23;20407;-85
2023/05/23 00:54:34;;;;;;;7.80;7.10;;;14.20;99.90;;;;;;6104173;23;20192;-85
2023/05/23 00:57:11;;;;;;;9.73;6.70;;;14.30;99.90;;;;;;6110065;23;20185;-86
2023/05/23 00:59:44;;;;;;;7.33;6.20;;;14.30;99.90;;;;;;6131990;23;20213;-86
2023/05/23 01:02:12;;;;;;;6.85;5.90;;;14.10;99.90;;;;;;6131174;23;20374;-82
2023/05/23 01:04:40;;;;;;;7.97;7.15;;;14.00;99.90;;;;;;6132190;23;20185;-80
2023/05/23 01:07:11;;;;;;;6.65;6.05;;;14.10;99.90;;;;;;6131512;23;20436;-81
2023/05/23 01:09:41;;;;;;;6.80;6.20;;;14.10;99.90;;;;;;6083270;23;20193;-80
2023/05/23 01:12:23;;;;;;;10.85;7.55;;;14.10;99.90;;;;;;6133304;23;20451;-82
2023/05/23 01:15:09;;;;;;;9.45;6.80;;;13.90;99.90;;;;;;6133086;23;20189;-85
2023/05/23 01:17:51;;;;;;;10.45;7.70;;;13.90;99.90;;;;;;6104049;23;20197;-85
2023/05/23 01:20:27;;;;;;;9.10;6.60;;;13.90;99.90;;;;;;6131632;23;20170;-81
2023/05/23 01:23:00;;;;;;;8.70;6.93;;;13.90;99.90;;;;;;6105927;23;20399;-81
2023/05/23 01:25:37;;;;;;;19.98;7.10;;;14.00;99.90;;;;;;6138057;23;20371;-81
2023/05/23 01:28:09;;;;;;;13.60;8.30;;;13.70;99.90;;;;;;6137755;23;20307;-82
2023/05/23 01:30:40;;;;;;;6.50;5.72;;;13.80;99.90;;;;;;6110876;23;20213;-80
2023/05/23 01:33:11;;;;;;;8.30;6.60;;;13.60;99.90;;;;;;6085484;23;20174;-85
2023/05/23 01:35:39;;;;;;;13.57;6.90;;;13.60;99.90;;;;;;6123580;23;20160;-84
2023/05/23 01:38:09;;;;;;;8.18;6.43;;;13.80;99.90;;;;;;6126966;23;20185;-86
2023/05/23 01:40:37;;;;;;;7.07;6.32;;;13.80;99.90;;;;;;6119503;23;20181;-80
2023/05/23 01:43:09;;;;;;;7.50;6.20;;;13.80;99.90;;;;;;6087470;23;20483;-81
2023/05/23 01:45:40;;;;;;;7.18;6.45;;;13.80;99.90;;;;;;6088382;23;20215;-84
2023/05/23 01:48:10;;;;;;;13.10;7.50;;;13.60;99.90;;;;;;6145052;23;20177;-86
2023/05/23 01:50:38;;;;;;;13.02;6.88;;;13.50;99.90;;;;;;6152786;23;20165;-85
2023/05/23 01:53:08;;;;;;;10.80;6.30;;;13.70;99.90;;;;;;6128768;23;20169;-81
2023/05/23 01:55:40;;;;;;;9.13;8.05;;;13.70;99.90;;;;;;6153605;23;20201;-86
2023/05/23 01:58:07;;;;;;;7.20;6.50;;;13.70;99.90;;;;;;6128358;23;20176;-82
2023/05/23 02:00:34;;;;;;;7.05;5.57;;;13.70;99.90;;;;;;6147264;23;20252;-82
2023/05/23 02:03:04;;;;;;;7.38;6.40;;;13.50;99.90;;;;;;6136411;23;20185;-83
2023/05/23 02:05:33;;;;;;;6.80;5.55;;;13.60;99.90;;;;;;6134143;23;20210;-84
2023/05/23 02:08:02;;;;;;;7.40;5.82;;;13.60;99.90;;;;;;6134057;23;20190;-84
2023/05/23 02:10:29;;;;;;;7.38;6.55;;;13.50;99.90;;;;;;6108696;23;20186;-83
2023/05/23 02:12:58;;;;;;;13.88;8.40;;;13.60;99.90;;;;;;6134239;23;20177;-83
2023/05/23 02:15:25;;;;;;;6.93;6.05;;;13.40;99.90;;;;;;6136313;23;20182;-83
2023/05/23 02:17:53;;;;;;;10.68;7.00;;;13.40;99.90;;;;;;6110343;23;20251;-82
2023/05/23 02:20:21;;;;;;;8.45;6.00;;;13.40;99.90;;;;;;6110809;23;20178;-82
2023/05/23 02:22:48;;;;;;;9.63;6.40;;;13.40;99.90;;;;;;6111372;23;20184;-85
2023/05/23 02:25:23;;;;;;;9.48;6.47;;;13.40;99.90;;;;;;6140421;23;20245;-84
2023/05/23 02:27:53;;;;;;;7.10;6.10;;;13.20;99.90;;;;;;6140101;23;20170;-85
2023/05/23 02:30:24;;;;;;;8.07;7.28;;;13.10;99.90;;;;;;6138876;23;20182;-86
2023/05/23 02:32:52;;;;;;;10.90;7.50;;;13.10;99.90;;;;;;6137992;23;20184;-84
2023/05/23 02:35:21;;;;;;;7.72;6.43;;;13.20;99.90;;;;;;6138513;23;20233;-85
2023/05/23 02:37:48;;;;;;;8.02;6.90;;;13.20;99.90;;;;;;6134860;23;20367;-83
2023/05/23 02:40:17;;;;;;;7.60;6.07;;;13.20;99.90;;;;;;6138995;23;20233;-84
2023/05/23 02:42:44;;;;;;;6.80;6.10;;;13.30;99.90;;;;;;6136019;23;20182;-80
2023/05/23 02:45:16;;;;;;;7.82;7.00;;;13.20;99.90;;;;;;6135127;23;20189;-81
2023/05/23 02:47:44;;;;;;;7.55;6.85;;;13.30;99.90;;;;;;6135709;23;20181;-88
2023/05/23 02:50:18;;;;;;;8.98;6.88;;;13.20;99.90;;;;;;6134799;23;20383;-82
2023/05/23 02:52:45;;;;;;;9.13;6.40;;;13.20;99.90;;;;;;6134980;23;20213;-83
2023/05/23 02:55:12;;;;;;;10.75;7.13;;;13.20;99.90;;;;;;6135828;23;20165;-86
2023/05/23 02:57:42;;;;;;;6.95;6.25;;;13.30;99.90;;;;;;6150972;23;20178;-83
2023/05/23 03:00:11;;;;;;;9.27;6.68;;;13.40;99.90;;;;;;6152766;23;20176;-82
2023/05/23 03:02:38;;;;;;;7.60;6.80;;;13.30;99.90;;;;;;6129483;23;20166;-83
2023/05/23 03:05:09;;;;;;;16.75;8.40;;;13.30;99.90;;;;;;6154771;23;20197;-86
2023/05/23 03:07:36;;;;;;;8.20;7.30;;;13.30;99.90;;;;;;6122387;23;20544;-83
2023/05/23 03:10:06;;;;;;;7.70;6.68;;;13.30;99.90;;;;;;6160991;23;20361;-79
2023/05/23 03:12:35;;;;;;;9.10;7.47;;;13.30;99.90;;;;;;6135288;23;20178;-83
2023/05/23 03:15:03;;;;;;;7.75;6.75;;;13.30;99.90;;;;;;6135269;23;20182;-83
2023/05/23 03:17:34;;;;;;;9.48;8.25;;;13.30;99.90;;;;;;6134529;23;20427;-81
2023/05/23 03:20:03;;;;;;;8.25;7.25;;;13.30;99.90;;;;;;6108569;23;20522;-84
2023/05/23 03:22:33;;;;;;;7.80;7.10;;;13.30;99.90;;;;;;6134784;23;20261;-86
2023/05/23 03:25:04;;;;;;;11.57;7.28;;;13.40;99.90;;;;;;6110437;23;20250;-85
2023/05/23 03:27:32;;;;;;;8.02;6.85;;;13.40;99.90;;;;;;6135449;23;20197;-87
2023/05/23 03:29:59;;;;;;;8.07;7.35;;;13.50;99.90;;;;;;6133460;23;20790;-84
2023/05/23 03:32:35;;;;;;;9.30;7.93;;;13.60;99.90;;;;;;6132563;23;20527;-87
2023/05/23 03:35:03;;;;;;;7.38;6.68;;;13.90;99.90;;;;;;6085724;23;20378;-85
2023/05/23 03:37:31;;;;;;;8.60;7.65;;;14.00;99.90;;;;;;6134051;23;20200;-82
2023/05/23 03:40:03;;;;;;;6.97;6.22;;;13.80;99.90;;;;;;6134495;23;20258;-80
2023/05/23 03:42:36;;;;;;;7.65;6.80;;;13.90;99.90;;;;;;6108572;23;20253;-82
2023/05/23 03:45:03;;;;;;;8.90;6.97;;;13.90;99.90;;;;;;6108319;23;20181;-83
2023/05/23 03:47:31;;;;;;;7.40;6.70;;;13.90;99.90;;;;;;6133230;23;20261;-84
2023/05/23 03:50:02;;;;;;;8.30;7.63;;;13.80;99.90;;;;;;6132361;23;20178;-84
2023/05/23 03:52:31;;;;;;;7.20;6.50;;;13.80;99.90;;;;;;6131217;23;20186;-83
2023/05/23 03:55:03;;;;;;;8.00;7.18;;;13.80;99.90;;;;;;6110147;23;20495;-79
2023/05/23 03:57:31;;;;;;;11.23;8.25;;;13.90;99.90;;;;;;6142301;23;20162;-83
2023/05/23 04:00:05;;;;;;;7.50;6.68;;;14.00;99.90;;;;;;6143206;23;20181;-79
2023/05/23 04:02:32;;;;;;;8.25;7.20;;;14.10;99.90;;;;;;6141684;23;20185;-80
2023/05/23 04:05:00;;;;;;;10.07;7.03;;;14.20;99.90;;;;;;6114465;23;20182;-82
2023/05/23 04:07:29;;;;;;;8.07;7.28;;;14.30;99.90;;;;;;6142433;23;20199;-80
2023/05/23 04:09:58;;;;;;;8.77;7.88;;;14.10;99.90;;;;;;6119302;23;20217;-82
2023/05/23 04:12:29;;;;;;;11.52;8.30;;;14.10;99.90;;;;;;6146100;23;20181;-82
2023/05/23 04:14:57;;;;;;;19.73;7.93;;;14.20;99.90;;;;;;6145336;23;20197;-80
2023/05/23 04:17:29;;;;;;;9.05;7.65;;;14.20;99.90;;;;;;6112747;23;20459;-80
2023/05/23 04:20:00;;;;;;;8.13;7.30;;;14.10;99.90;;;;;;6136392;23;20418;-83
2023/05/23 04:22:27;;;;;;;7.85;6.65;;;14.20;99.90;;;;;;6133668;23;20861;-82
2023/05/23 04:25:02;;;;;;;8.80;7.30;;;14.30;99.90;;;;;;6170494;23;20176;-85
2023/05/23 04:27:33;;;;;;;9.20;6.43;;;14.30;99.90;;;;;;6153360;23;20201;-85
2023/05/23 04:30:09;;;;;;;7.93;6.97;;;14.40;99.90;;;;;;6150121;23;20449;-82
2023/05/23 04:32:37;;;;;;;7.90;7.20;;;14.50;99.90;;;;;;6135499;23;20483;-82
2023/05/23 04:35:07;;;;;;;9.53;6.90;;;14.70;99.90;;;;;;6133221;23;20396;-79
2023/05/23 04:37:41;;;;;;;7.73;6.60;;;14.80;99.90;;;;;;6108203;23;20389;-82
2023/05/23 04:40:12;;;;;;;16.77;7.60;;;14.90;99.90;;;;;;6132030;23;20567;-89
2023/05/23 04:42:43;;;;;;;8.47;7.67;;;15.00;99.90;;;;;;6106303;23;20430;-83
2023/05/23 04:45:10;;;;;;;9.20;7.90;;;15.10;99.90;;;;;;6156166;23;20424;-80
2023/05/23 04:47:38;;;;;;;10.70;7.60;;;15.10;99.90;;;;;;6134141;23;20469;-84
2023/05/23 04:50:10;;;;;;;8.20;7.40;;;15.30;99.90;;;;;;6134816;23;20413;-86
2023/05/23 04:52:38;;;;;;;10.40;7.47;;;15.50;99.90;;;;;;6136350;23;20386;-81
2023/05/23 04:55:08;;;;;;;13.00;9.00;;;15.60;99.90;;;;;;6133629;23;20494;-84
2023/05/23 04:57:42;;;;;;;8.83;7.87;;;15.80;99.90;;;;;;6108082;23;20419;-83
2023/05/23 05:00:10;;;;;;;14.87;7.63;;;15.90;99.90;;;;;;6131853;23;20858;-87
2023/05/23 05:02:40;;;;;;;7.93;7.13;;;16.20;99.90;;;;;;6133565;23;20725;-85
2023/05/23 05:05:07;;;;;;;10.20;7.50;;;16.40;99.90;;;;;;6132254;23;20491;-86
2023/05/23 05:07:41;;;;;;;10.80;6.50;;;16.60;99.90;;;;;;6107429;23;20442;-85
2023/05/23 05:10:15;;;;;;;7.33;6.40;;;16.80;99.90;;;;;;6134004;23;20447;-88
2023/05/23 05:12:51;;;;;;;15.33;9.40;;;16.90;99.90;;;;;;6141553;23;20403;-86
2023/05/23 05:15:18;;;;;;;8.57;7.40;;;17.10;99.90;;;;;;6128078;23;20470;-81
2023/05/23 05:17:47;;;;;;;10.07;8.23;;;17.00;99.90;;;;;;6126993;23;20382;-83
2023/05/23 05:20:16;;;;;;;11.73;7.23;;;16.90;99.90;;;;;;6111426;23;20395;-81
2023/05/23 05:22:59;;;;;;;15.27;6.60;;;17.10;99.90;;;;;;6112567;23;20420;-84
2023/05/23 05:25:27;;;;;;;8.80;7.90;;;17.30;99.90;;;;;;6136315;23;20421;-82
2023/05/23 05:27:57;;;;;;;7.90;7.10;;;17.50;99.90;;;;;;6110952;23;20407;-85
2023/05/23 05:30:32;;;;;;;8.47;7.40;;;17.70;99.90;;;;;;6137099;23;20362;-83
2023/05/23 05:33:07;;;;;;;12.40;8.80;;;17.90;99.90;;;;;;6138106;23;20415;-84
2023/05/23 05:35:34;;;;;;;8.50;7.37;;;17.90;99.90;;;;;;6110835;23;20396;-86
2023/05/23 05:38:07;;;;;;;8.97;8.17;;;17.80;99.90;;;;;;6133817;23;20501;-85
2023/05/23 05:40:34;;;;;;;9.00;7.13;;;17.90;99.90;;;;;;6114281;23;20453;-82
2023/05/23 05:43:05;;;;;;;10.73;6.97;;;17.80;99.90;;;;;;6158232;23;20933;-87
2023/05/23 05:45:40;;;;;;;9.60;8.70;;;18.00;99.90;;;;;;6135351;23;20354;-86
2023/05/23 05:48:11;;;;;;;11.80;8.63;;;17.90;99.90;;;;;;6136556;23;20446;-86
2023/05/23 05:50:44;;;;;;;17.17;6.80;;;17.70;99.90;;;;;;6111290;23;20410;-83
2023/05/23 05:53:12;;;;;;;7.93;7.13;;;18.10;99.90;;;;;;6135152;23;20866;-85
2023/05/23 05:55:45;;;;;;;11.00;7.27;;;18.30;99.90;;;;;;6132907;23;20589;-85
2023/05/23 05:58:16;;;;;;;10.73;7.50;;;18.50;99.90;;;;;;6134749;23;20665;-84
2023/05/23 06:00:47;;;;;;;9.67;8.23;;;18.80;99.90;;;;;;6109172;23;20893;-86
2023/05/23 06:03:17;;;;;;;9.80;8.27;;;19.10;99.90;;;;;;6108083;23;20398;-86
2023/05/23 06:06:16;;;;;;;9.80;8.70;;;19.50;99.90;;;;;;6154135;23;20701;-87
2023/05/23 06:08:46;;;;;;;11.50;8.43;;;19.70;99.90;;;;;;6136125;23;20721;-89
2023/05/23 06:11:15;;;;;;;12.43;8.80;;;20.10;99.90;;;;;;6087759;23;20406;-88
2023/05/23 06:13:43;;;;;;;10.77;9.67;;;20.10;99.90;;;;;;6118670;23;20400;-88
2023/05/23 06:16:22;;;;;;;14.60;9.13;;;20.20;99.90;;;;;;6125045;23;20420;-89
2023/05/23 06:19:02;;;;;;;9.90;8.13;;;20.30;99.90;;;;;;6129023;23;20440;-89
2023/05/23 06:21:31;;;;;;;10.33;8.70;;;20.00;99.90;;;;;;6145526;23;20375;-87
2023/05/23 06:24:07;;;;;;;11.40;8.10;;;19.80;99.90;;;;;;6135675;23;20474;-87
2023/05/23 06:26:36;;;;;;;9.03;7.80;;;20.10;99.90;;;;;;6114116;23;20418;-86
2023/05/23 06:29:03;;;;;;;8.77;7.97;;;20.10;99.90;;;;;;6117199;23;20487;-85
2023/05/23 06:31:33;;;;;;;17.40;10.80;;;20.10;99.90;;;;;;6122236;23;20454;-86
2023/05/23 06:34:01;;;;;;;14.83;9.97;;;20.20;99.90;;;;;;6122667;23;20374;-86
2023/05/23 06:36:52;;;;;;;19.10;9.60;;;20.10;99.90;;;;;;6115095;23;20450;-89
2023/05/23 06:39:28;;;;;;;10.10;9.10;;;20.30;99.90;;;;;;6114552;23;20396;-87
2023/05/23 06:42:08;;;;;;;11.47;8.73;;;20.40;99.90;;;;;;6138618;23;20418;-88
2023/05/23 06:44:42;;;;;;;11.17;9.47;;;21.20;99.90;;;;;;6138649;23;20351;-88
2023/05/23 06:47:24;;;;;;;13.17;9.37;;;21.80;99.90;;;;;;6115366;23;20785;-85
2023/05/23 06:50:02;;;;;;;13.40;9.37;;;21.90;99.90;;;;;;6116722;23;20391;-85
2023/05/23 06:52:48;;;;;;;20.10;10.60;;;22.30;99.90;;;;;;6115405;23;20374;-86
2023/05/23 06:55:29;;;;;;;13.00;10.37;;;22.90;99.90;;;;;;6112685;23;20418;-87
2023/05/23 06:58:29;;;;;;;11.40;9.60;;;23.20;99.90;;;;;;6135340;23;20355;-86
2023/05/23 07:01:11;;;;;;;15.67;9.10;;;23.10;99.90;;;;;;6137172;23;20944;-87
2023/05/23 07:04:12;;;;;;;9.40;8.47;;;23.30;99.90;;;;;;6115567;23;20412;-86
2023/05/23 07:06:42;;;;;;;11.47;9.70;;;23.40;99.90;;;;;;6140132;23;20429;-89
2023/05/23 07:09:19;;;;;;;11.23;9.20;;;23.30;99.90;;;;;;6138630;23;20407;-86
2023/05/23 07:12:01;;;;;;;9.60;8.33;;;23.40;99.90;;;;;;6136592;23;20404;-86
2023/05/23 07:14:37;;;;;;;10.27;9.27;;;24.30;99.90;;;;;;6113099;23;20408;-84
2023/05/23 07:17:11;;;;;;;10.43;8.37;;;25.50;99.90;;;;;;6137092;23;20732;-91
2023/05/23 07:19:48;;;;;;;16.63;9.90;;;25.30;99.90;;;;;;6112197;23;20399;-84
2023/05/23 07:22:23;;;;;;;10.03;9.03;;;25.80;99.90;;;;;;6114245;23;20391;-86
2023/05/23 07:24:58;;;;;;;11.73;8.63;;;27.00;99.90;;;;;;6111879;23;20403;-88
2023/05/23 07:27:32;;;;;;;14.97;9.20;;;28.40;99.90;;;;;;6116499;23;20428;-84
2023/05/23 07:30:09;;;;;;;9.17;8.40;;;29.40;95.20;;;;;;6139991;23;20427;-87
2023/05/23 07:32:40;;;;;;;16.00;8.67;;;26.00;99.90;;;;;;6113325;23;20560;-85
2023/05/23 07:35:27;;;;;;;;;;;;;;;;;;;;;
2023/05/23 07:38:04;;;;;;;10.20;8.23;;;24.50;99.90;;;;;;6115255;23;20462;-83
2023/05/23 07:40:32;;;;;;;10.40;9.40;;;24.20;99.90;;;;;;6137256;23;20779;-86
2023/05/23 07:43:14;;;;;;;8.73;7.60;;;24.00;99.90;;;;;;6112592;23;20442;-84
2023/05/23 07:45:43;;;;;;;11.13;8.13;;;24.10;99.90;;;;;;6111226;23;20463;-88
2023/05/23 07:48:12;;;;;;;20.53;8.53;;;23.90;99.90;;;;;;6132881;23;20471;-87
2023/05/23 07:50:43;;;;;;;14.97;9.27;;;24.10;99.90;;;;;;6138294;23;20410;-85
2023/05/23 07:53:25;;;;;;;;;;;;;;;;;;;;;
2023/05/23 07:55:55;;;;;;;9.00;7.67;;;23.20;99.90;;;;;;6139162;23;20560;-87
2023/05/23 07:58:23;;;;;;;10.87;7.73;;;23.40;99.90;;;;;;6110502;23;20725;-86
2023/05/23 08:01:19;;;;;;;9.67;8.40;;;24.00;99.90;;;;;;6115414;23;20416;-88
2023/05/23 08:03:54;;;;;;;12.23;8.73;;;24.20;99.90;;;;;;6135762;23;20387;-89
2023/05/23 08:06:40;;;;;;;8.60;7.80;;;24.40;99.90;;;;;;6116699;23;20738;-88
2023/05/23 08:09:26;;;;;;;8.27;7.43;;;25.30;99.90;;;;;;6126385;23;20389;-86
2023/05/23 08:11:56;;;;;;;9.00;7.50;;;26.70;99.90;;;;;;6150388;23;20378;-85
2023/05/23 08:14:35;;;;;;;10.90;7.80;;;26.40;99.90;;;;;;6103859;23;20473;-85
2023/05/23 08:17:19;;;;;;;8.17;7.37;;;25.90;99.90;;;;;;6140311;23;20376;-89
2023/05/23 08:19:47;;;;;;;9.73;7.57;;;25.40;99.90;;;;;;6111561;23;20396;-88
2023/05/23 08:22:15;;;;;;;8.40;7.40;;;25.20;99.90;;;;;;6111168;23;20440;-86
2023/05/23 08:24:44;;;;;;;7.93;6.93;;;25.30;99.90;;;;;;6136750;23;20440;-85
2023/05/23 08:27:12;;;;;;;13.10;7.73;;;25.20;99.90;;;;;;6134052;23;20838;-85
2023/05/23 08:29:44;;;;;;;12.20;9.00;;;24.90;99.90;;;;;;6134886;23;20895;-83
2023/05/23 08:32:12;;;;;;;11.47;8.40;;;24.50;99.90;;;;;;6110334;23;20456;-85
2023/05/23 08:34:43;;;;;;;11.93;7.67;;;24.40;99.90;;;;;;6110440;23;20648;-85
2023/05/23 08:37:13;;;;;;;8.07;7.27;;;24.10;99.90;;;;;;6135377;23;20424;-85
2023/05/23 08:39:41;;;;;;;9.00;8.13;;;24.10;99.90;;;;;;6108287;23;20454;-84
2023/05/23 08:42:08;;;;;;;11.90;8.60;;;23.90;99.90;;;;;;6134882;23;20423;-85
2023/05/23 08:44:39;;;;;;;9.90;8.70;;;23.80;99.90;;;;;;6136139;23;20411;-85
2023/05/23 08:47:10;;;;;;;9.47;8.60;;;23.90;99.90;;;;;;6111142;23;20435;-85
2023/05/23 08:49:53;;;;;;;10.20;7.80;;;23.90;99.90;;;;;;6141767;23;20363;-86
2023/05/23 08:52:26;;;;;;;12.03;8.90;;;24.30;99.90;;;;;;6123595;23;20415;-86
2023/05/23 08:54:56;;;;;;;9.40;7.93;;;24.60;99.90;;;;;;6125334;23;20410;-85
2023/05/23 08:57:29;;;;;;;11.20;8.83;;;24.50;99.90;;;;;;6113690;23;20545;-84
2023/05/23 09:00:03;;;;;;;11.57;8.33;;;24.30;99.90;;;;;;6135603;23;20410;-87
2023/05/23 09:02:39;;;;;;;13.90;8.73;;;24.60;99.90;;;;;;6110797;23;20421;-85
2023/05/23 09:05:08;;;;;;;13.40;8.87;;;24.80;99.90;;;;;;6135290;23;20379;-85
2023/05/23 09:07:37;;;;;;;10.87;9.67;;;24.80;99.90;;;;;;6109104;23;20596;-86
2023/05/23 09:10:09;;;;;;;10.50;8.90;;;24.80;99.90;;;;;;6109791;23;20407;-84
2023/05/23 09:12:47;;;;;;;10.60;9.47;;;24.00;99.90;;;;;;6112037;23;20490;-85
2023/05/23 09:15:15;;;;;;;14.13;9.30;;;23.50;99.90;;;;;;6122008;23;20385;-86
2023/05/23 09:17:51;;;;;;;11.73;10.50;;;23.00;99.90;;;;;;6141211;23;20404;-85
2023/05/23 09:20:23;;;;;;;13.83;11.77;;;22.80;99.90;;;;;;6137167;23;20400;-84
2023/05/23 09:23:01;;;;;;;11.63;10.37;;;22.70;99.90;;;;;;6111495;23;20419;-85
2023/05/23 09:25:47;;;;;;;16.17;10.70;;;22.70;99.90;;;;;;6140314;23;20434;-85
2023/05/23 09:28:19;;;;;;;10.93;9.83;;;22.70;99.90;;;;;;6111234;23;20444;-85
2023/05/23 09:30:58;;;;;;;14.40;10.57;;;22.60;99.90;;;;;;6134605;23;20500;-86
2023/05/23 09:33:47;;;;;;;14.80;10.60;;;22.60;99.90;;;;;;6112506;23;20360;-84
2023/05/23 09:36:22;;;;;;;16.67;10.97;;;22.40;99.90;;;;;;6112083;23;20456;-86
2023/05/23 09:38:52;;;;;;;12.17;9.70;;;22.20;99.90;;;;;;6135522;23;20622;-88
2023/05/23 09:41:20;;;;;;;15.43;12.10;;;22.10;99.90;;;;;;6134719;23;20577;-85
2023/05/23 09:43:55;;;;;;;13.80;12.33;;;22.00;99.90;;;;;;6133631;23;20427;-85
2023/05/23 09:46:29;;;;;;;12.97;11.30;;;22.00;99.90;;;;;;6112658;23;20391;-85
2023/05/23 09:49:00;;;;;;;14.47;12.03;;;22.10;99.90;;;;;;6135127;23;20439;-86
2023/05/23 09:52:02;;;;;;;20.57;14.13;;;21.90;99.90;;;;;;6134085;23;20664;-85
2023/05/23 09:54:30;;;;;;;13.80;12.30;;;21.90;99.90;;;;;;6108910;23;20419;-84
2023/05/23 09:57:01;;;;;;;16.53;14.80;;;21.90;99.90;;;;;;6133645;23;20378;-85
2023/05/23 09:59:53;;;;;;;16.77;13.10;;;21.90;99.90;;;;;;6109659;23;20388;-84
2023/05/23 10:03:22;;;;;;;15.03;13.37;;;22.00;99.90;;;;;;6131635;23;20385;-84
2023/05/23 10:05:56;;;;;;;19.50;13.33;;;22.00;99.90;;;;;;6103629;23;20482;-86
2023/05/23 10:08:43;;;;;;;18.60;13.17;;;22.40;99.90;;;;;;6130836;23;20450;-84
2023/05/23 10:11:35;;;;;;;21.70;15.10;;;22.40;99.90;;;;;;6135611;23;20394;-86
2023/05/23 10:14:08;;;;;;;18.17;15.97;;;22.60;99.90;;;;;;6128846;23;20383;-86
2023/05/23 10:16:50;;;;;;;17.70;14.23;;;22.30;99.90;;;;;;6136448;23;20383;-87
2023/05/23 10:19:53;;;;;;;16.27;13.70;;;22.40;99.90;;;;;;6111327;23;20404;-86
2023/05/23 10:22:30;;;;;;;13.93;12.60;;;22.30;99.90;;;;;;6142817;23;20371;-83
2023/05/23 10:25:01;;;;;;;15.00;13.47;;;22.50;99.90;;;;;;6146868;23;20380;-83
2023/05/23 10:27:55;;;;;;;15.77;13.47;;;22.50;99.90;;;;;;6139161;23;20471;-85
2023/05/23 10:30:33;;;;;;;13.03;11.83;;;22.80;99.90;;;;;;6150153;23;20370;-85
2023/05/23 10:33:02;;;;;;;14.00;12.70;;;22.70;99.90;;;;;;6151599;23;20379;-87
2023/05/23 10:36:19;;;;;;;14.80;13.40;;;22.90;99.90;;;;;;6131225;23;20378;-87
2023/05/23 10:39:16;;;;;;;14.47;13.07;;;23.20;99.90;;;;;;6130030;23;20359;-87
2023/05/23 10:41:50;;;;;;;20.57;13.90;;;23.70;99.90;;;;;;6147669;23;20390;-85
2023/05/23 10:44:46;;;;;;;14.40;13.10;;;24.10;99.90;;;;;;6140552;23;20354;-84
2023/05/23 10:47:28;;;;;;;21.23;12.80;;;24.60;99.90;;;;;;6114278;23;20417;-84
2023/05/23 10:49:59;;;;;;;15.73;13.07;;;24.60;99.90;;;;;;6137337;23;20401;-86
2023/05/23 10:52:40;;;;;;;14.57;12.50;;;24.90;99.90;;;;;;6137639;23;20417;-84
2023/05/23 10:55:19;;;;;;;17.93;13.70;;;25.50;99.90;;;;;;6134970;23;20409;-85
2023/05/23 10:58:30;;;;;;;15.13;13.47;;;25.90;99.90;;;;;;6136113;23;20707;-86
2023/05/23 11:03:50;;;;;;;14.77;13.20;;;26.30;99.90;;;;;;6082219;23;20445;-87
2023/05/23 11:06:43;;;;;;;14.73;13.27;;;26.00;99.90;;;;;;6138096;23;20407;-86
2023/05/23 11:09:18;;;;;;;13.80;10.43;;;25.90;99.90;;;;;;6140168;23;20422;-87
2023/05/23 11:11:52;;;;;;;15.63;11.60;;;25.70;99.90;;;;;;6139012;23;20595;-89
2023/05/23 11:14:31;;;;;;;12.63;9.93;;;26.10;99.90;;;;;;6139469;23;20573;-86
2023/05/23 11:17:19;;;;;;;13.70;11.13;;;26.30;99.90;;;;;;6100383;23;20451;-83
2023/05/23 11:20:02;;;;;;;13.43;10.40;;;26.10;99.90;;;;;;6136323;23;20400;-88
2023/05/23 11:22:33;;;;;;;11.37;9.23;;;26.10;99.90;;;;;;6139254;23;20434;-86
2023/05/23 11:25:11;;;;;;;10.40;9.20;;;26.30;99.90;;;;;;6141077;23;20402;-86
2023/05/23 11:27:43;;;;;;;13.20;9.60;;;25.90;99.90;;;;;;6137058;23;20434;-83
2023/05/23 11:30:16;;;;;;;11.83;9.27;;;26.10;99.90;;;;;;6114054;23;20391;-88
2023/05/23 11:32:53;;;;;;;9.37;8.40;;;25.50;99.90;;;;;;6112471;23;20402;-85
2023/05/23 11:35:22;;;;;;;12.73;8.37;;;25.60;99.90;;;;;;6134903;23;20406;-87
2023/05/23 11:37:56;;;;;;;10.23;8.43;;;25.60;99.90;;;;;;6138612;23;20365;-88
2023/05/23 11:40:43;;;;;;;10.00;9.00;;;25.90;99.90;;;;;;6101197;23;20504;-85
2023/05/23 11:43:18;;;;;;;10.00;9.10;;;26.50;99.90;;;;;;6138577;23;20476;-84
2023/05/23 11:45:47;;;;;;;8.43;7.83;;;27.00;99.90;;;;;;6116764;23;20411;-87
2023/05/23 11:48:19;;;;;;;9.73;8.60;;;27.40;99.90;;;;;;6094823;23;20452;-87
2023/05/23 11:50:49;;;;;;;9.00;8.10;;;27.30;99.90;;;;;;6144973;23;20401;-88
2023/05/23 11:53:19;;;;;;;13.83;8.47;;;26.90;99.90;;;;;;6136435;23;20447;-87
2023/05/23 11:55:56;;;;;;;9.83;8.60;;;26.90;99.90;;;;;;6146877;23;20391;-85
2023/05/23 11:58:29;;;;;;;8.47;7.57;;;27.10;99.90;;;;;;6133828;23;20391;-87
2023/05/23 12:01:09;;;;;;;9.03;8.10;;;27.20;99.90;;;;;;6135659;23;20507;-83
2023/05/23 12:03:47;;;;;;;9.63;7.37;;;26.80;99.90;;;;;;6128188;23;20525;-83
2023/05/23 12:06:20;;;;;;;8.77;7.83;;;26.40;99.90;;;;;;6137385;23;20406;-86
2023/05/23 12:08:54;;;;;;;9.10;6.87;;;26.50;99.90;;;;;;6113552;23;20451;-85
2023/05/23 12:11:24;;;;;;;10.13;8.53;;;26.60;99.90;;;;;;6137672;23;20392;-88
2023/05/23 12:13:53;;;;;;;10.27;8.03;;;26.70;99.90;;;;;;6140109;23;20407;-87
2023/05/23 12:16:20;;;;;;;7.07;6.40;;;26.50;99.90;;;;;;6120953;23;20446;-85
2023/05/23 12:18:51;;;;;;;8.07;7.30;;;26.20;99.90;;;;;;6142749;23;20430;-86
2023/05/23 12:21:25;;;;;;;8.30;7.60;;;26.20;99.90;;;;;;6142983;23;20500;-84
2023/05/23 12:23:53;;;;;;;7.30;6.67;;;26.30;99.90;;;;;;6146462;23;20392;-85
2023/05/23 12:26:21;;;;;;;10.00;8.30;;;25.40;99.90;;;;;;6152549;23;20791;-86
2023/05/23 12:28:47;;;;;;;11.20;8.50;;;25.30;99.90;;;;;;6147777;23;20446;-87
2023/05/23 12:31:21;;;;;;;13.43;7.63;;;25.30;99.90;;;;;;6123626;23;20471;-84
2023/05/23 12:33:51;;;;;;;10.67;8.37;;;25.60;99.90;;;;;;6150815;23;20438;-86
2023/05/23 12:36:24;;;;;;;7.87;7.20;;;25.80;99.90;;;;;;6140131;23;20455;-87
2023/05/23 12:39:06;;;;;;;8.70;6.97;;;26.00;99.90;;;;;;6146163;23;20404;-84
2023/05/23 12:41:35;;;;;;;7.90;6.97;;;25.90;99.90;;;;;;6140988;23;20373;-86
2023/05/23 12:44:03;;;;;;;11.07;8.30;;;26.20;99.90;;;;;;6142601;23;20467;-86
2023/05/23 12:46:34;;;;;;;13.10;8.63;;;26.40;99.90;;;;;;6117142;23;20435;-86
2023/05/23 12:49:08;;;;;;;7.20;6.60;;;26.80;99.90;;;;;;6150124;23;20598;-85
2023/05/23 12:51:37;;;;;;;7.37;6.73;;;27.00;99.90;;;;;;6152080;23;20363;-85
2023/05/23 12:54:06;;;;;;;7.20;6.50;;;27.30;99.90;;;;;;6152460;23;20460;-89
2023/05/23 12:56:35;;;;;;;7.60;6.80;;;27.40;99.90;;;;;;6152259;23;20388;-89
2023/05/23 12:59:08;;;;;;;7.67;6.87;;;27.00;99.90;;;;;;6132309;23;20439;-86
2023/05/23 13:01:37;;;;;;;8.93;7.90;;;26.40;99.90;;;;;;6114320;23;20456;-87
2023/05/23 13:04:09;;;;;;;8.43;7.60;;;25.80;99.90;;;;;;6148069;23;20408;-87
2023/05/23 13:06:40;;;;;;;10.20;8.90;;;25.50;99.90;;;;;;6127685;23;20449;-85
2023/05/23 13:09:11;;;;;;;10.63;7.77;;;25.30;99.90;;;;;;6140588;23;20781;-86
2023/05/23 13:14:15;;;;;;;9.23;8.40;;;25.10;99.90;;;;;;6129967;23;20436;-85
2023/05/23 13:16:44;;;;;;;7.87;7.23;;;25.50;99.90;;;;;;6139376;23;20442;-86
2023/05/23 13:19:20;;;;;;;8.90;7.47;;;25.60;99.90;;;;;;6139328;23;20388;-86
2023/05/23 13:21:52;;;;;;;10.40;9.40;;;25.40;99.90;;;;;;6112513;23;20395;-90